createdAt,value
2018-08-22T00:00:10.529Z,22.72
2018-08-22T00:02:41.594Z,22.63
2018-08-22T00:05:12.551Z,22.58
2018-08-22T00:07:43.535Z,22.51
2018-08-22T00:10:14.535Z,22.59
2018-08-22T00:12:45.579Z,22.58
2018-08-22T00:15:16.535Z,22.58
2018-08-22T00:17:47.517Z,22.61
2018-08-22T00:20:18.631Z,22.60
2018-08-22T00:22:49.611Z,22.55
2018-08-22T00:25:21.055Z,22.53
2018-08-22T00:27:52.299Z,22.53
2018-08-22T00:30:23.374Z,22.49
2018-08-22T00:32:54.401Z,22.53
2018-08-22T00:35:25.498Z,22.51
2018-08-22T00:37:56.628Z,22.44
2018-08-22T00:40:27.514Z,22.51
2018-08-22T00:42:58.512Z,22.48
2018-08-22T00:45:29.475Z,22.43
2018-08-22T00:48:00.516Z,22.47
2018-08-22T00:50:31.493Z,22.46
2018-08-22T00:53:02.511Z,22.48
2018-08-22T00:55:33.553Z,22.45
2018-08-22T00:58:04.525Z,22.40
2018-08-22T01:00:35.552Z,22.42
2018-08-22T01:03:06.517Z,22.44
2018-08-22T01:05:37.537Z,22.26
2018-08-22T01:08:08.568Z,22.33
2018-08-22T01:10:39.511Z,22.25
2018-08-22T01:13:10.590Z,22.28
2018-08-22T01:15:41.505Z,22.26
2018-08-22T01:18:12.510Z,22.26
2018-08-22T01:20:43.498Z,22.25
2018-08-22T01:23:14.504Z,22.19
2018-08-22T01:25:45.507Z,22.09
2018-08-22T01:28:16.476Z,22.00
2018-08-22T01:30:48.508Z,21.93
2018-08-22T01:33:19.558Z,21.98
2018-08-22T01:35:50.505Z,21.92
2018-08-22T01:38:21.530Z,21.83
2018-08-22T01:40:52.500Z,21.88
2018-08-22T01:43:23.517Z,21.95
2018-08-22T01:45:54.517Z,21.78
2018-08-22T01:48:25.538Z,21.83
2018-08-22T01:50:56.501Z,21.79
2018-08-22T01:53:27.508Z,21.81
2018-08-22T01:55:58.505Z,21.72
2018-08-22T01:58:29.505Z,21.77
2018-08-22T02:01:00.493Z,21.70
2018-08-22T02:03:31.533Z,21.75
2018-08-22T02:06:02.518Z,21.78
2018-08-22T02:08:33.513Z,21.61
2018-08-22T02:11:04.501Z,21.60
2018-08-22T02:13:35.489Z,21.52
2018-08-22T02:16:06.534Z,21.46
2018-08-22T02:18:37.520Z,21.53
2018-08-22T02:21:08.499Z,21.46
2018-08-22T02:23:39.497Z,21.48
2018-08-22T02:26:10.495Z,21.39
2018-08-22T02:28:41.510Z,21.26
2018-08-22T02:31:12.511Z,21.27
2018-08-22T02:33:43.486Z,21.23
2018-08-22T02:36:14.539Z,21.31
2018-08-22T02:38:45.509Z,21.22
2018-08-22T02:41:16.488Z,21.15
2018-08-22T02:43:47.490Z,21.21
2018-08-22T02:46:18.487Z,21.08
2018-08-22T02:48:56.611Z,21.14
2018-08-22T02:51:27.586Z,21.10
2018-08-22T02:53:58.569Z,21.05
2018-08-22T02:56:29.497Z,21.03
2018-08-22T02:59:00.522Z,20.92
2018-08-22T03:01:31.504Z,20.90
2018-08-22T03:04:02.516Z,20.99
2018-08-22T03:06:33.624Z,20.95
2018-08-22T03:09:06.461Z,20.91
2018-08-22T03:11:37.570Z,20.88
2018-08-22T03:14:08.535Z,20.83
2018-08-22T03:16:39.538Z,20.99
2018-08-22T03:19:10.512Z,20.93
2018-08-22T03:21:41.525Z,20.84
2018-08-22T03:24:12.603Z,20.67
2018-08-22T03:26:43.518Z,20.90
2018-08-22T03:31:58.363Z,20.74
2018-08-22T03:34:29.413Z,20.75
2018-08-22T03:37:00.526Z,20.70
2018-08-22T03:39:31.513Z,20.77
2018-08-22T03:42:02.502Z,20.74
2018-08-22T03:44:33.533Z,20.66
2018-08-22T03:47:04.517Z,20.67
2018-08-22T03:49:35.528Z,20.72
2018-08-22T03:52:06.517Z,20.61
2018-08-22T03:54:37.499Z,20.69
2018-08-22T03:57:17.821Z,20.63
2018-08-22T03:59:48.741Z,20.59
2018-08-22T04:02:19.597Z,20.50
2018-08-22T04:04:50.579Z,20.53
2018-08-22T04:07:21.532Z,20.55
2018-08-22T04:09:52.520Z,20.62
2018-08-22T04:12:23.563Z,20.62
2018-08-22T04:14:54.685Z,20.61
2018-08-22T04:17:33.594Z,20.50
2018-08-22T04:20:04.585Z,20.51
2018-08-22T04:22:36.478Z,20.52
2018-08-22T04:25:08.215Z,20.51
2018-08-22T04:27:39.399Z,20.52
2018-08-22T04:30:10.518Z,20.51
2018-08-22T04:32:41.518Z,20.54
2018-08-22T04:35:12.545Z,20.54
2018-08-22T04:37:43.543Z,20.47
2018-08-22T04:40:14.515Z,20.45
2018-08-22T04:42:45.529Z,20.51
2018-08-22T04:45:16.555Z,20.37
2018-08-22T04:47:47.572Z,20.46
2018-08-22T04:50:18.523Z,20.49
2018-08-22T04:52:49.505Z,20.61
2018-08-22T04:55:20.581Z,20.47
2018-08-22T04:57:51.618Z,20.53
2018-08-22T05:00:22.590Z,20.46
2018-08-22T05:02:53.510Z,20.55
2018-08-22T05:05:24.494Z,20.55
2018-08-22T05:07:55.526Z,20.58
2018-08-22T05:10:26.507Z,20.64
2018-08-22T05:12:57.489Z,20.56
2018-08-22T05:15:28.498Z,20.59
2018-08-22T05:17:59.537Z,20.59
2018-08-22T05:20:30.542Z,20.72
2018-08-22T05:23:01.521Z,20.74
2018-08-22T05:25:32.493Z,20.74
2018-08-22T05:28:03.531Z,20.79
2018-08-22T05:30:34.622Z,20.74
2018-08-22T05:33:06.027Z,20.77
2018-08-22T05:35:37.404Z,20.78
2018-08-22T05:38:09.289Z,20.88
2018-08-22T05:40:40.407Z,20.99
2018-08-22T05:43:11.462Z,21.01
2018-08-22T05:45:42.538Z,21.09
2018-08-22T05:48:13.525Z,21.14
2018-08-22T05:50:44.492Z,21.26
2018-08-22T05:53:15.526Z,21.39
2018-08-22T05:55:46.535Z,21.46
2018-08-22T05:58:17.503Z,21.29
2018-08-22T06:00:48.523Z,21.64
2018-08-22T06:03:19.624Z,21.60
2018-08-22T06:05:51.594Z,21.67
2018-08-22T06:08:22.540Z,21.47
2018-08-22T06:10:53.500Z,21.68
2018-08-22T06:13:24.506Z,21.88
2018-08-22T06:15:55.550Z,21.99
2018-08-22T06:18:26.517Z,21.98
2018-08-22T06:20:57.497Z,21.98
2018-08-22T06:23:28.549Z,21.98
2018-08-22T06:25:59.478Z,21.96
2018-08-22T06:28:30.497Z,21.91
2018-08-22T06:31:01.578Z,22.14
2018-08-22T06:33:32.572Z,22.38
2018-08-22T06:36:03.594Z,22.43
2018-08-22T06:38:34.553Z,22.23
2018-08-22T06:41:05.590Z,22.57
2018-08-22T06:43:36.626Z,22.70
2018-08-22T06:46:07.596Z,22.71
2018-08-22T06:48:38.518Z,22.78
2018-08-22T06:51:09.499Z,22.85
2018-08-22T06:53:40.594Z,22.51
2018-08-22T06:56:11.619Z,22.73
2018-08-22T06:58:42.543Z,22.97
2018-08-22T07:01:13.485Z,23.25
2018-08-22T07:03:44.470Z,23.26
2018-08-22T07:06:15.503Z,23.35
2018-08-22T07:08:46.555Z,23.23
2018-08-22T07:11:17.546Z,23.19
2018-08-22T07:13:48.497Z,23.43
2018-08-22T07:16:19.520Z,23.25
2018-08-22T07:18:50.490Z,23.22
2018-08-22T07:21:21.505Z,23.40
2018-08-22T07:23:52.506Z,23.67
2018-08-22T07:26:23.514Z,23.77
2018-08-22T07:28:54.534Z,23.82
2018-08-22T07:31:25.574Z,23.86
2018-08-22T07:33:56.603Z,23.80
2018-08-22T07:39:13.542Z,23.97
2018-08-22T07:41:44.575Z,23.90
2018-08-22T07:44:15.568Z,24.21
2018-08-22T07:46:46.560Z,24.33
2018-08-22T07:49:17.541Z,24.46
2018-08-22T07:51:48.547Z,24.63
2018-08-22T07:54:19.571Z,24.86
2018-08-22T07:56:50.546Z,24.81
2018-08-22T07:59:22.284Z,25.05
2018-08-22T08:01:53.457Z,25.03
2018-08-22T08:04:24.490Z,24.44
2018-08-22T08:06:55.505Z,24.77
2018-08-22T08:09:26.505Z,25.12
2018-08-22T08:11:57.494Z,25.07
2018-08-22T08:14:28.497Z,25.15
2018-08-22T08:17:00.413Z,25.38
2018-08-22T08:19:31.410Z,25.56
2018-08-22T08:22:02.575Z,25.57
2018-08-22T08:24:33.493Z,25.47
2018-08-22T08:27:04.518Z,25.85
2018-08-22T08:29:35.490Z,26.11
2018-08-22T08:32:06.555Z,26.20
2018-08-22T08:34:37.511Z,26.57
2018-08-22T08:37:08.532Z,26.88
2018-08-22T08:39:39.533Z,27.57
2018-08-22T08:42:10.578Z,26.90
2018-08-22T08:44:41.551Z,27.36
2018-08-22T08:47:12.592Z,27.58
2018-08-22T08:49:43.635Z,28.30
2018-08-22T08:52:14.530Z,28.58
2018-08-22T08:54:45.517Z,28.16
2018-08-22T08:57:16.635Z,28.60
2018-08-22T08:59:47.483Z,28.80
2018-08-22T09:02:18.532Z,28.99
2018-08-22T09:04:49.522Z,29.28
2018-08-22T09:07:20.570Z,29.67
2018-08-22T09:09:51.476Z,30.03
2018-08-22T09:12:22.561Z,30.05
2018-08-22T09:14:53.528Z,30.05
2018-08-22T09:17:24.620Z,30.63
2018-08-22T09:19:55.535Z,30.48
2018-08-22T09:22:26.512Z,30.83
2018-08-22T09:24:57.505Z,30.71
2018-08-22T09:27:28.542Z,30.88
2018-08-22T09:29:59.499Z,29.87
2018-08-22T09:32:30.526Z,31.03
2018-08-22T09:35:01.663Z,31.06
2018-08-22T09:37:32.729Z,31.51
2018-08-22T09:40:03.621Z,30.66
2018-08-22T09:42:34.496Z,31.82
2018-08-22T09:45:05.538Z,32.03
2018-08-22T09:47:36.485Z,32.05
2018-08-22T09:50:07.578Z,31.22
2018-08-22T09:52:38.566Z,32.72
2018-08-22T09:55:09.567Z,32.19
2018-08-22T09:57:40.663Z,32.98
2018-08-22T10:00:16.772Z,33.42
2018-08-22T10:02:47.558Z,33.70
2018-08-22T10:05:18.529Z,33.85
2018-08-22T10:07:49.505Z,33.49
2018-08-22T10:10:20.509Z,33.05
2018-08-22T10:12:51.643Z,33.48
2018-08-22T10:15:22.555Z,32.79
2018-08-22T10:17:53.493Z,34.09
2018-08-22T10:20:24.550Z,33.70
2018-08-22T10:22:55.538Z,33.48
2018-08-22T10:25:26.490Z,32.73
2018-08-22T10:27:57.510Z,32.46
2018-08-22T10:30:28.517Z,33.59
2018-08-22T10:32:59.566Z,34.29
2018-08-22T10:35:30.608Z,33.04
2018-08-22T10:38:01.583Z,33.43
2018-08-22T10:40:32.502Z,33.20
2018-08-22T10:43:03.659Z,34.18
2018-08-22T10:45:34.579Z,34.30
2018-08-22T10:48:05.584Z,34.51
2018-08-22T10:50:37.535Z,34.58
2018-08-22T10:53:09.466Z,34.16
2018-08-22T10:55:40.489Z,32.83
2018-08-22T10:58:11.505Z,33.88
2018-08-22T11:00:42.607Z,33.13
2018-08-22T11:03:13.536Z,34.44
2018-08-22T11:05:44.527Z,33.45
2018-08-22T11:08:15.535Z,34.52
2018-08-22T11:10:46.518Z,34.55
2018-08-22T11:13:17.535Z,35.38
2018-08-22T11:15:48.639Z,34.61
2018-08-22T11:18:19.481Z,35.40
2018-08-22T11:20:50.468Z,35.33
2018-08-22T11:23:44.404Z,35.07
2018-08-22T11:26:38.420Z,35.29
2018-08-22T11:29:32.506Z,36.29
2018-08-22T11:32:26.526Z,35.10
2018-08-22T11:34:55.318Z,36.07
2018-08-22T11:37:26.390Z,35.54
2018-08-22T11:39:57.558Z,35.73
2018-08-22T11:42:28.579Z,34.86
2018-08-22T11:44:59.523Z,36.48
2018-08-22T11:47:30.660Z,36.01
2018-08-22T11:50:01.525Z,35.26
2018-08-22T11:52:32.532Z,36.57
2018-08-22T11:55:03.551Z,37.09
2018-08-22T11:57:34.489Z,37.01
2018-08-22T12:00:06.681Z,37.17
2018-08-22T12:02:37.565Z,36.49
2018-08-22T12:05:08.614Z,37.88
2018-08-22T12:07:39.494Z,37.43
2018-08-22T12:10:10.498Z,37.63
2018-08-22T12:12:41.485Z,37.21
2018-08-22T12:15:12.593Z,37.18
2018-08-22T12:17:43.533Z,37.48
2018-08-22T12:20:14.498Z,37.23
2018-08-22T12:22:45.563Z,37.31
2018-08-22T12:25:17.881Z,37.22
2018-08-22T12:27:48.850Z,37.68
2018-08-22T12:30:19.634Z,37.70
2018-08-22T12:32:50.501Z,37.41
2018-08-22T12:35:21.516Z,36.80
2018-08-22T12:37:52.582Z,37.32
2018-08-22T12:40:23.512Z,37.40
2018-08-22T12:42:54.545Z,36.45
2018-08-22T12:45:25.492Z,36.47
2018-08-22T12:47:56.537Z,37.32
2018-08-22T12:50:27.633Z,37.21
2018-08-22T12:52:58.523Z,37.87
2018-08-22T12:55:29.506Z,36.61
2018-08-22T12:58:00.488Z,36.35
2018-08-22T13:00:31.465Z,36.74
2018-08-22T13:03:02.490Z,37.54
2018-08-22T13:05:33.485Z,36.47
2018-08-22T13:08:04.472Z,37.22
2018-08-22T13:10:35.492Z,37.49
2018-08-22T13:13:06.552Z,38.17
2018-08-22T13:15:37.537Z,36.69
2018-08-22T13:18:08.538Z,38.20
2018-08-22T13:20:39.565Z,38.88
2018-08-22T13:23:10.550Z,38.46
2018-08-22T13:25:41.511Z,37.94
2018-08-22T13:28:12.516Z,39.41
2018-08-22T13:30:43.499Z,38.48
2018-08-22T13:33:14.486Z,38.94
2018-08-22T13:35:45.574Z,38.17
2018-08-22T13:38:16.540Z,38.23
2018-08-22T13:40:47.551Z,38.11
2018-08-22T13:43:18.514Z,37.55
2018-08-22T13:45:49.546Z,37.50
2018-08-22T13:48:20.512Z,38.12
2018-08-22T13:50:51.559Z,39.15
2018-08-22T13:53:22.485Z,38.14
2018-08-22T13:55:53.550Z,38.17
2018-08-22T13:58:24.522Z,38.65
2018-08-22T14:00:55.513Z,38.32
2018-08-22T14:03:26.526Z,37.87
2018-08-22T14:05:57.534Z,37.98
2018-08-22T14:08:28.470Z,37.79
2018-08-22T14:10:59.481Z,38.60
2018-08-22T14:13:30.468Z,37.26
2018-08-22T14:16:01.514Z,37.93
2018-08-22T14:18:32.497Z,37.37
2018-08-22T14:21:03.473Z,37.59
2018-08-22T14:23:34.481Z,37.61
2018-08-22T14:26:05.537Z,37.12
2018-08-22T14:28:36.506Z,37.95
2018-08-22T14:31:07.487Z,37.48
2018-08-22T14:33:38.554Z,37.54
2018-08-22T14:36:09.544Z,37.98
2018-08-22T14:38:40.553Z,36.76
2018-08-22T14:41:11.562Z,37.50
2018-08-22T14:43:42.606Z,37.07
2018-08-22T14:46:13.577Z,36.83
2018-08-22T14:48:44.530Z,36.84
2018-08-22T14:51:15.541Z,36.92
2018-08-22T14:53:46.867Z,36.96
2018-08-22T14:56:18.145Z,37.04
2018-08-22T14:58:49.385Z,37.13
2018-08-22T15:01:20.510Z,37.25
2018-08-22T15:03:51.673Z,36.82
2018-08-22T15:06:22.593Z,36.68
2018-08-22T15:09:05.242Z,36.11
2018-08-22T15:11:36.572Z,36.18
2018-08-22T15:14:08.417Z,36.83
2018-08-22T15:16:39.794Z,36.54
2018-08-22T15:19:10.646Z,36.69
2018-08-22T15:21:41.485Z,36.21
2018-08-22T15:24:12.492Z,36.05
2018-08-22T15:26:43.552Z,35.98
2018-08-22T15:29:14.473Z,35.63
2018-08-22T15:31:46.294Z,35.73
2018-08-22T15:34:17.378Z,35.56
2018-08-22T15:36:48.425Z,35.25
2018-08-22T15:39:19.458Z,35.16
2018-08-22T15:41:50.616Z,35.06
2018-08-22T15:44:21.452Z,34.43
2018-08-22T15:46:52.473Z,34.44
2018-08-22T15:49:23.461Z,34.64
2018-08-22T15:51:54.917Z,34.57
2018-08-22T15:54:25.747Z,34.20
2018-08-22T15:56:56.562Z,34.48
2018-08-22T15:59:27.506Z,34.38
2018-08-22T16:01:58.530Z,34.20
2018-08-22T16:04:29.502Z,34.07
2018-08-22T16:07:07.733Z,34.12
2018-08-22T16:09:39.241Z,33.93
2018-08-22T16:12:09.507Z,33.98
2018-08-22T16:14:40.929Z,33.54
2018-08-22T16:17:12.033Z,33.68
2018-08-22T16:19:43.363Z,33.52
2018-08-22T16:22:14.450Z,33.56
2018-08-22T16:24:45.504Z,33.48
2018-08-22T16:27:17.023Z,33.38
2018-08-22T16:29:48.387Z,33.45
2018-08-22T16:32:19.547Z,33.36
2018-08-22T16:34:50.560Z,33.25
2018-08-22T16:37:21.578Z,33.06
2018-08-22T16:39:52.627Z,33.09
2018-08-22T16:42:27.555Z,32.91
2018-08-22T16:44:58.546Z,32.95
2018-08-22T16:47:33.361Z,32.99
2018-08-22T16:50:06.021Z,33.04
2018-08-22T16:52:37.247Z,32.81
2018-08-22T16:55:19.344Z,32.76
2018-08-22T16:57:50.829Z,32.77
2018-08-22T17:00:33.811Z,32.77
2018-08-22T17:03:08.301Z,32.73
2018-08-22T17:05:39.380Z,32.68
2018-08-22T17:08:10.490Z,32.54
2018-08-22T17:10:59.426Z,32.50
2018-08-22T17:13:53.697Z,32.53
2018-08-22T17:16:25.432Z,32.41
2018-08-22T17:18:56.508Z,32.26
2018-08-22T17:21:27.507Z,32.18
2018-08-22T17:23:58.694Z,32.11
2018-08-22T17:26:29.553Z,32.21
2018-08-22T17:29:01.361Z,32.13
2018-08-22T17:31:32.629Z,32.10
2018-08-22T17:34:04.378Z,32.06
2018-08-22T17:36:35.502Z,32.09
2018-08-22T17:39:08.314Z,32.06
2018-08-22T17:41:39.372Z,31.96
2018-08-22T17:44:12.603Z,31.92
2018-08-22T17:46:50.278Z,31.79
2018-08-22T17:49:20.395Z,31.73
2018-08-22T17:52:00.431Z,31.73
2018-08-22T17:54:31.489Z,31.62
2018-08-22T17:57:25.469Z,31.47
2018-08-22T17:59:58.312Z,31.43
2018-08-22T18:02:29.382Z,31.48
2018-08-22T18:05:04.021Z,31.41
2018-08-22T18:07:35.300Z,31.39
2018-08-22T18:10:06.390Z,31.35
2018-08-22T18:12:37.506Z,31.28
2018-08-22T18:15:08.493Z,31.25
2018-08-22T18:17:39.477Z,31.13
2018-08-22T18:20:10.486Z,31.12
2018-08-22T18:22:41.556Z,31.03
2018-08-22T18:25:12.477Z,30.92
2018-08-22T18:27:43.502Z,30.86
2018-08-22T18:30:14.488Z,30.76
2018-08-22T18:32:47.458Z,30.68
2018-08-22T18:35:18.511Z,30.65
2018-08-22T18:37:49.499Z,30.57
2018-08-22T18:40:23.509Z,30.50
2018-08-22T18:43:04.547Z,30.33
2018-08-22T18:45:35.805Z,30.32
2018-08-22T18:48:07.188Z,30.22
2018-08-22T18:50:38.341Z,30.18
2018-08-22T18:53:09.379Z,30.14
2018-08-22T18:55:40.509Z,30.12
2018-08-22T18:58:11.485Z,30.06
2018-08-22T19:00:42.518Z,30.01
2018-08-22T19:03:13.641Z,29.94
2018-08-22T19:05:44.480Z,29.86
2018-08-22T19:08:16.802Z,29.84
2018-08-22T19:10:50.408Z,29.84
2018-08-22T19:13:24.249Z,29.77
2018-08-22T19:15:59.402Z,29.73
2018-08-22T19:18:31.189Z,29.64
2018-08-22T19:21:05.413Z,29.61
2018-08-22T19:23:36.581Z,29.59
2018-08-22T19:26:08.440Z,29.48
2018-08-22T19:28:58.022Z,29.38
2018-08-22T19:31:29.355Z,29.23
2018-08-22T19:34:00.373Z,29.33
2018-08-22T19:36:31.390Z,29.25
2018-08-22T19:39:02.515Z,29.19
2018-08-22T19:41:34.446Z,29.13
2018-08-22T19:44:06.432Z,29.14
2018-08-22T19:46:38.521Z,29.11
2018-08-22T19:49:09.664Z,29.09
2018-08-22T19:51:40.523Z,29.01
2018-08-22T19:54:11.507Z,28.91
2018-08-22T19:56:42.473Z,28.66
2018-08-22T19:59:15.290Z,28.64
2018-08-22T20:01:46.353Z,28.75
2018-08-22T20:04:17.370Z,28.65
2018-08-22T20:06:48.523Z,28.64
2018-08-22T20:09:19.506Z,28.55
2018-08-22T20:11:50.614Z,28.42
2018-08-22T20:14:21.498Z,28.47
2018-08-22T20:16:52.558Z,28.37
2018-08-22T20:19:23.505Z,28.36
2018-08-22T20:21:54.482Z,28.37
2018-08-22T20:24:25.658Z,28.27
2018-08-22T20:27:01.661Z,28.17
2018-08-22T20:29:32.562Z,28.19
2018-08-22T20:32:03.486Z,28.17
2018-08-22T20:34:34.554Z,28.03
2018-08-22T20:37:05.553Z,27.76
2018-08-22T20:39:36.543Z,27.80
2018-08-22T20:42:10.501Z,27.79
2018-08-22T20:44:42.659Z,27.77
2018-08-22T20:47:13.590Z,27.75
2018-08-22T20:49:44.545Z,27.72
2018-08-22T20:52:15.566Z,27.70
2018-08-22T20:54:54.230Z,27.52
2018-08-22T20:57:26.473Z,27.56
2018-08-22T20:59:57.564Z,27.60
2018-08-22T21:02:28.588Z,27.40
2018-08-22T21:04:59.481Z,27.39
2018-08-22T21:07:36.466Z,27.30
2018-08-22T21:10:07.542Z,27.13
2018-08-22T21:12:38.544Z,26.99
2018-08-22T21:15:09.484Z,27.04
2018-08-22T21:17:40.537Z,27.07
2018-08-22T21:20:20.586Z,26.93
2018-08-22T21:22:51.998Z,26.99
2018-08-22T21:25:23.281Z,26.81
2018-08-22T21:27:54.757Z,26.96
2018-08-22T21:30:25.632Z,26.98
2018-08-22T21:32:56.505Z,26.95
2018-08-22T21:35:27.518Z,26.93
2018-08-22T21:38:05.475Z,26.84
2018-08-22T21:40:36.467Z,26.85
2018-08-22T21:43:07.489Z,26.82
2018-08-22T21:45:38.691Z,26.81
2018-08-22T21:48:18.654Z,26.80
2018-08-22T21:50:49.502Z,26.79
2018-08-22T21:53:20.794Z,26.77
2018-08-22T21:55:53.453Z,26.73
2018-08-22T21:58:24.539Z,26.74
2018-08-22T22:00:55.486Z,26.74
2018-08-22T22:03:32.683Z,26.67
2018-08-22T22:06:04.532Z,26.64
2018-08-22T22:08:35.500Z,26.49
2018-08-22T22:11:07.653Z,26.52
2018-08-22T22:13:38.562Z,26.48
2018-08-22T22:16:09.546Z,26.35
2018-08-22T22:18:40.489Z,26.30
2018-08-22T22:21:16.374Z,26.21
2018-08-22T22:23:48.714Z,26.12
2018-08-22T22:26:20.382Z,26.08
2018-08-22T22:28:51.532Z,25.98
2018-08-22T22:31:22.470Z,26.07
2018-08-22T22:34:08.224Z,26.03
2018-08-22T22:36:39.363Z,26.00
2018-08-22T22:39:35.395Z,25.98
2018-08-22T22:42:32.014Z,25.98
2018-08-22T22:45:03.279Z,25.98
2018-08-22T22:47:36.272Z,25.96
2018-08-22T22:52:52.409Z,25.91
2018-08-22T22:55:23.474Z,25.92
2018-08-22T22:57:55.224Z,25.85
2018-08-22T23:00:26.357Z,25.80
2018-08-22T23:03:02.547Z,25.85
2018-08-22T23:05:33.466Z,25.78
2018-08-22T23:08:04.505Z,25.71
2018-08-22T23:10:35.534Z,25.77
2018-08-22T23:13:06.502Z,25.64
2018-08-22T23:15:37.477Z,25.68
2018-08-22T23:18:08.489Z,25.58
2018-08-22T23:20:41.405Z,25.61
2018-08-22T23:23:33.491Z,25.46
2018-08-22T23:26:17.747Z,25.47
2018-08-22T23:28:48.582Z,25.42
2018-08-22T23:31:21.019Z,25.49
2018-08-22T23:36:40.406Z,25.39
2018-08-22T23:39:11.570Z,25.42
2018-08-22T23:41:42.502Z,25.45
2018-08-22T23:44:13.489Z,25.45
2018-08-22T23:46:44.476Z,25.44
2018-08-22T23:49:15.493Z,25.37
2018-08-22T23:51:46.499Z,25.35
2018-08-22T23:54:17.474Z,25.31
2018-08-22T23:56:52.369Z,25.22
2018-08-22T23:59:23.481Z,25.20
